エカテリンブルク の空港の天気 - METARとTAF

コルツォヴォ空港 ( USSS / SVX ) - ロシア エカテリンブルク
飛行場実況気象(Metar)
観測時間10/22 17:30 YEKT (10/22 12:30 UTC)
風向・風速西 8m/s
視程10km以上
天気現象弱いしゅう雪
全天の8割程度の雲 雲底高度 1010m
気温-2℃
湿度86%
気圧1008hPa
METARUSSS 221230Z 28008MPS 9999 -SHSN BKN033CB M02/M04 Q1008 RESHSN R26R/290035 TEMPO 0400 +SHSN VV003 RMK QFE735/0981
過去の天気等 Google飛行場航空写真 Wunderground天気予報

過去48時間のMETAR

飛行場予報(TAF)
発表時間: 10/22 15:58 YEKT (10/22 10:58 UTC)
予報対象時間: 22日17時 YEKT ~ 23日17時 YEKT
風向・風速西 3m/s 瞬間風速 10m/s
視程6000m
天気現象弱いしゅう雪
全天の8割程度の積乱雲 雲底高度 340m
22日17時 YEKT ~ 22日23時 YEKT に一時的に
風向・風速西北西 7m/s 瞬間風速 15m/s
視程900m
天気現象強いしゅう雪
22日23時 YEKT ~ 22日24時 YEKT に徐々に
風向・風速北北西 3m/s 瞬間風速 12m/s
全天の8割程度の積乱雲 雲底高度 610m
23日7時 YEKT ~ 23日9時 YEKT に徐々に
視程10km以上
天気現象運行に影響にある天気現象が終了
全天の4割程度の積乱雲 雲底高度 610m
TAF USSS 221058Z 2212/2312 27003G10MPS 6000 -SHSN BKN011CB
TEMPO 2212/2218 29007G15MPS 0900 +SHSN
BECMG 2218/2219 33003G12MPS BKN020CB
BECMG 2302/2304 9999 NSW SCT020CB